Latest Weather Observations for Mornington Island Airport

IDQ60801

Issued at 5:02 pm EST Saturday 30 July 2016 (issued every 30 minutes, with the page automatically refreshed every 10 minutes)

About weather observations | Map of weather stations | Latest weather observations for QLD | Other Formats
Station Details ID: 029182 Name: MORNINGTON ISLAND AIRPORT Lat: -16.66 Lon: 139.17 Height: 9.0 m
Data from the previous 72 hours. | See also: Recent months at Mornington Island Airport
Date/Time
EST
Temp
°C
App
Temp
°C
Dew
Point
°C
Rel
Hum
%
Delta-T
°C
Wind Press
QNH
hPa
Press
MSL
hPa
Rain since
9am
mm
Dir  Spd
km/h
Gust
km/h
Spd
kts
Gust
kts
30/05:00pm 25.0 23.7 15.9 57 5.5 SE 17 24 9 13 1012.8 1012.7 0.0
30/04:30pm 25.0 23.2 15.6 56 5.7 SE 19 24 10 13 1013.0 1012.9 0.0
30/04:00pm 24.3 22.9 14.4 54 5.9 SSE 15 24 8 13 1013.4 1013.3 0.0
30/03:30pm 24.3 22.6 14.7 55 5.7 SE 17 24 9 13 1013.7 1013.6 0.0
30/03:00pm 23.3 20.7 13.8 55 5.5 SSE 20 30 11 16 1014.1 1014.0 0.0
30/02:30pm 23.3 20.9 14.3 57 5.3 SSE 20 33 11 18 1014.1 1014.0 0.0
30/02:00pm 23.1 20.7 14.4 58 5.1 SSE 20 30 11 16 1014.6 1014.5 0.0
30/01:30pm 22.8 20.9 14.1 58 5.1 SSE 17 26 9 14 1015.1 1015.0 0.0
30/01:00pm 22.9 19.7 13.1 54 5.6 SE 22 35 12 19 1015.7 1015.6 0.0
30/12:30pm 22.8 18.8 13.0 54 5.6 SE 26 37 14 20 1016.0 1015.9 0.0
30/12:00pm 22.9 19.2 12.8 53 5.8 SE 24 33 13 18 1016.1 1016.0 0.0
30/11:30am 22.5 17.9 12.4 52 5.7 SE 28 39 15 21 1016.4 1016.3 0.0
30/11:00am 22.6 19.4 13.1 55 5.5 SE 22 33 12 18 1016.7 1016.6 0.0
30/10:30am 21.9 18.2 12.7 56 5.2 SE 24 37 13 20 1016.9 1016.8 0.0
30/10:00am 20.9 16.5 11.8 56 5.1 SE 26 43 14 23 1016.7 1016.6 0.0
30/09:30am 21.0 16.9 11.6 55 5.2 SE 24 37 13 20 1016.7 1016.6 0.0
30/09:00am 20.4 16.3 11.3 56 5.0 SE 24 43 13 23 1016.4 1016.3 0.0
30/08:30am 20.1 16.5 11.8 59 4.6 SE 22 39 12 21 1016.3 1016.2 0.0
30/08:00am 19.4 15.8 11.7 61 4.2 SE 22 35 12 19 1016.0 1015.9 0.0
30/07:30am 18.9 15.6 11.7 63 4.0 SSE 20 32 11 17 1015.7 1015.6 0.0
30/07:00am 18.8 15.4 11.1 61 4.2 SSE 20 30 11 16 1015.6 1015.5 0.0
30/06:30am 19.3 15.9 11.1 59 4.5 SSE 20 37 11 20 1015.5 1015.4 0.0
30/06:00am 19.3 16.3 10.8 58 4.6 SE 17 26 9 14 1015.1 1015.0 0.0
30/05:30am 19.8 16.3 11.0 57 4.8 SE 20 32 11 17 1014.9 1014.8 0.0
30/05:00am 19.9 16.5 11.1 57 4.8 SE 20 33 11 18 1014.7 1014.6 0.0
30/04:30am 19.7 16.5 11.2 58 4.7 SE 19 32 10 17 1014.9 1014.8 0.0
30/04:00am 20.1 16.7 11.3 57 4.8 SE 20 30 11 16 1014.7 1014.6 0.0
30/03:30am 20.2 17.1 11.7 58 4.7 SSE 19 30 10 16 1014.9 1014.8 0.0
30/03:00am 20.3 17.5 11.2 56 5.0 SSE 17 28 9 15 1014.8 1014.7 0.0
30/02:30am 20.4 17.8 11.9 58 4.7 SSE 17 28 9 15 1014.9 1014.8 0.0
30/02:00am 20.4 18.2 12.1 59 4.6 SSE 15 22 8 12 1015.2 1015.1 0.0
30/01:30am 20.7 18.4 11.6 56 5.0 SSE 15 22 8 12 1015.5 1015.4 0.0
30/01:00am 20.7 19.0 12.4 59 4.7 SSE 13 20 7 11 1015.7 1015.6 0.0
30/12:30am 20.9 18.8 12.3 58 4.8 SSE 15 22 8 12 1015.8 1015.7 0.0
30/12:00am 20.0 18.3 12.5 62 4.2 SSE 13 19 7 10 1016.0 1015.9 0.0
 
Date/Time
EST
Temp
°C
App
Temp
°C
Dew
Point
°C
Rel
Hum
%
Delta-T
°C
Wind Press
QNH
hPa
Press
MSL
hPa
Rain since
9am
mm
Dir  Spd
km/h
Gust
km/h
Spd
kts
Gust
kts
29/11:30pm 18.6 17.6 12.4 67 3.5 SSE 9 13 5 7 1016.1 1016.0 0.0
29/11:00pm 18.5 17.5 12.3 67 3.4 SSE 9 15 5 8 1016.3 1016.2 0.0
29/10:30pm 18.3 17.4 12.7 70 3.1 SSE 9 13 5 7 1016.2 1016.1 0.0
29/10:00pm 14.2 12.2 8.8 70 2.7 SSE 9 13 5 7 1016.0 1015.9 0.0
29/09:30pm 15.3 13.5 7.8 61 3.7 SSE 7 9 4 5 1016.1 1016.0 0.0
29/09:00pm 15.8 14.2 8.1 60 3.9 ENE 6 9 3 5 1015.9 1015.8 0.0
29/08:30pm 16.1 14.3 8.1 59 4.0 NE 7 9 4 5 1015.7 1015.6 0.0
29/08:00pm 16.8 14.9 7.7 55 4.6 ESE 7 7 4 4 1015.3 1015.2 0.0
29/07:30pm 18.4 16.5 7.5 49 5.5 ESE 7 7 4 4 1015.0 1014.9 0.0
29/07:00pm 20.1 17.7 7.1 43 6.6 ESE 9 11 5 6 1014.7 1014.6 0.0
29/06:30pm 22.0 19.2 7.0 38 7.7 ESE 11 15 6 8 1014.4 1014.3 0.0
29/06:00pm 23.7 20.7 7.8 36 8.4 SE 13 17 7 9 1014.2 1014.1 0.0
29/05:30pm 24.7 21.2 7.4 33 9.1 SE 15 20 8 11 1014.2 1014.1 0.0
29/05:00pm 25.2 21.7 7.3 32 9.4 SE 15 20 8 11 1014.3 1014.2 0.0
29/04:30pm 25.5 21.9 6.7 30 9.8 SE 15 26 8 14 1014.3 1014.2 0.0
29/04:00pm 25.2 21.6 8.2 34 9.1 SE 17 28 9 15 1014.4 1014.3 0.0
29/03:30pm 24.8 20.7 8.7 36 8.7 SE 20 30 11 16 1014.6 1014.5 0.0
29/03:00pm 24.3 20.4 9.5 39 8.1 SE 20 33 11 18 1014.8 1014.7 0.0
29/02:30pm 23.8 20.5 11.5 46 6.9 SE 20 32 11 17 1015.2 1015.1 0.0
29/02:00pm 23.4 19.6 11.1 46 6.9 SE 22 33 12 18 1015.6 1015.5 0.0
29/01:30pm 22.6 18.7 12.0 51 6.0 SSE 24 35 13 19 1016.1 1016.0 0.0
29/01:00pm 22.7 19.0 12.6 53 5.8 SSE 24 39 13 21 1016.6 1016.5 0.0
29/12:30pm 22.7 19.1 11.7 49 6.2 SE 22 35 12 19 1016.8 1016.7 0.0
29/12:00pm 22.4 17.9 11.5 50 6.1 SE 26 41 14 22 1017.3 1017.2 0.0
29/11:30am 22.3 17.3 10.8 48 6.3 SE 28 41 15 22 1017.7 1017.6 0.0
29/11:00am 22.3 17.4 11.4 50 6.1 SE 28 43 15 23 1018.0 1017.9 0.0
29/10:30am 21.6 15.7 10.4 49 6.1 SE 32 44 17 24 1018.2 1018.1 0.0
29/10:12am 21.4 16.4 10.9 51 5.8 SE 28 46 15 25 1018.3 1018.3 0.0
29/10:00am 21.2 15.8 11.0 52 5.6 SE 30 44 16 24 1018.2 1018.1 0.0
29/09:30am 21.2 16.4 11.5 54 5.4 SE 28 41 15 22 1018.0 1017.9 0.0
29/09:02am 21.0 16.1 11.3 54 5.4 SE 28 46 15 25 1017.7 1017.6 0.0
29/09:00am 20.9 15.5 11.0 53 5.4 SE 30 46 16 25 1017.7 1017.6 0.0
29/08:30am 20.3 15.7 11.2 56 5.0 SE 26 44 14 24 1017.4 1017.3 0.0
29/08:00am 19.8 15.0 11.6 59 4.5 SE 28 44 15 24 1017.3 1017.2 0.0
29/07:30am 19.4 15.2 11.2 59 4.5 SE 24 41 13 22 1017.0 1016.9 0.0
29/07:00am 19.3 14.3 11.1 59 4.5 SE 28 44 15 24 1016.7 1016.6 0.0
29/06:30am 19.4 13.5 10.4 56 4.8 SE 32 50 17 27 1016.6 1016.5 0.0
29/06:00am 19.4 14.2 10.4 56 4.8 SE 28 46 15 25 1016.5 1016.4 0.0
29/05:30am 19.5 14.8 10.5 56 4.9 SE 26 46 14 25 1016.4 1016.3 0.0
29/05:00am 19.4 15.0 10.4 56 4.8 SE 24 44 13 24 1016.4 1016.3 0.0
29/04:37am 19.6 14.2 9.5 52 5.4 SSE 28 46 15 25 1016.3 1016.2 0.0
29/04:30am 19.6 14.7 10.0 54 5.1 SSE 26 46 14 25 1016.3 1016.2 0.0
29/04:13am 19.8 14.4 9.4 51 5.5 SSE 28 46 15 25 1016.3 1016.2 0.0
29/04:00am 19.6 15.0 9.8 53 5.2 SSE 24 48 13 26 1016.4 1016.3 0.0
29/03:30am 20.0 14.8 9.0 49 5.8 SSE 26 44 14 24 1016.4 1016.3 0.0
29/03:00am 20.4 14.9 9.3 49 5.9 SSE 28 50 15 27 1016.5 1016.4 0.0
29/02:30am 20.5 16.1 9.1 48 6.0 SSE 22 39 12 21 1016.7 1016.6 0.0
29/02:00am 20.7 16.5 9.6 49 5.9 SSE 22 35 12 19 1016.8 1016.7 0.0
29/01:30am 20.9 16.2 9.2 47 6.2 SSE 24 35 13 19 1017.1 1017.0 0.0
29/01:00am 20.9 17.1 9.8 49 6.0 SSE 20 33 11 18 1017.4 1017.3 0.0
29/12:30am 21.1 17.4 9.4 47 6.2 SSE 19 30 10 16 1017.5 1017.4 0.0
29/12:00am 21.8 17.6 9.7 46 6.5 SSE 22 33 12 18 1017.5 1017.4 0.0
 
Date/Time
EST
Temp
°C
App
Temp
°C
Dew
Point
°C
Rel
Hum
%
Delta-T
°C
Wind Press
QNH
hPa
Press
MSL
hPa
Rain since
9am
mm
Dir  Spd
km/h
Gust
km/h
Spd
kts
Gust
kts
28/11:30pm 22.1 18.4 10.3 47 6.4 SSE 20 32 11 17 1017.5 1017.4 0.0
28/11:00pm 22.3 18.9 11.1 49 6.2 SSE 20 32 11 17 1017.6 1017.5 0.0
28/10:30pm 22.4 19.2 11.2 49 6.2 SSE 19 32 10 17 1017.5 1017.4 0.0
28/10:00pm 22.7 19.3 11.1 48 6.4 SSE 20 30 11 16 1017.4 1017.3 0.0
28/09:30pm 22.5 19.9 11.9 51 6.0 SSE 17 26 9 14 1017.3 1017.2 0.0
28/09:00pm 21.6 21.0 14.5 64 4.2 SSE 11 17 6 9 1017.3 1017.2 0.0
28/08:30pm 20.9 20.6 15.4 71 3.3 SSE 11 15 6 8 1017.0 1016.9 0.0
28/08:00pm 21.3 21.1 15.6 70 3.4 SSE 11 17 6 9 1016.8 1016.7 0.0
28/07:30pm 21.4 21.3 15.0 67 3.8 SE 9 19 5 10 1016.4 1016.3 0.0
28/07:00pm 21.6 22.0 15.2 67 3.8 SE 7 9 4 5 1016.2 1016.1 0.0
28/06:30pm 23.0 22.2 14.0 57 5.3 SE 11 15 6 8 1015.7 1015.6 0.0
28/06:00pm 24.2 22.3 11.9 46 7.0 SE 13 19 7 10 1015.5 1015.4 0.0
28/05:30pm 25.0 22.3 10.5 40 8.1 SE 15 20 8 11 1015.3 1015.2 0.0
28/05:00pm 25.2 22.0 9.9 38 8.4 SE 17 26 9 14 1015.2 1015.1 0.0
28/04:30pm 25.2 20.9 9.5 37 8.6 SE 22 33 12 18 1015.1 1015.0 0.0
28/04:00pm 25.2 21.3 9.5 37 8.6 SSE 20 33 11 18 1015.2 1015.1 0.0
28/03:30pm 24.8 20.8 9.1 37 8.5 SSE 20 30 11 16 1015.3 1015.2 0.0
28/03:00pm 24.4 20.4 10.3 41 7.8 SSE 22 35 12 19 1015.6 1015.5 0.0
28/02:30pm 24.3 20.0 10.6 42 7.6 SSE 24 37 13 20 1015.9 1015.8 0.0
28/02:00pm 24.2 20.1 11.5 45 7.1 SSE 24 39 13 21 1016.4 1016.3 0.0
28/01:30pm 23.8 19.6 11.2 45 7.1 SSE 24 39 13 21 1016.9 1016.8 0.0
28/01:00pm 24.0 18.5 9.2 39 8.0 SE 28 48 15 26 1017.5 1017.4 0.0
28/12:57pm 23.4 17.3 8.3 38 8.0 SE 30 48 16 26 1017.5 1017.4 0.0
28/12:30pm 23.2 18.3 9.9 43 7.3 SE 26 43 14 23 1018.1 1018.0 0.0
28/12:00pm 22.8 17.1 9.9 44 7.0 SE 30 44 16 24 1018.5 1018.5 0.0
28/11:30am 22.7 18.0 10.5 46 6.7 SE 26 44 14 24 1018.9 1018.9 0.0
28/11:00am 22.3 17.4 10.1 46 6.6 SSE 26 46 14 25 1019.3 1019.3 0.0
28/10:34am 21.8 16.5 9.7 46 6.5 SE 28 46 15 25 1019.6 1019.6 0.0
28/10:30am 22.0 15.9 9.9 46 6.6 SE 32 46 17 25 1019.6 1019.6 0.0
28/10:01am 21.5 15.4 9.7 47 6.4 SE 32 50 17 27 1019.9 1019.9 0.0
28/10:00am 21.6 15.2 9.5 46 6.5 SE 33 50 18 27 1019.9 1019.9 0.0
28/09:30am 21.5 15.4 9.7 47 6.4 SE 32 52 17 28 1019.8 1019.8 0.0
28/09:24am 21.3 15.1 9.2 46 6.4 SE 32 52 17 28 1019.7 1019.7 0.0
28/09:00am 20.8 13.7 8.1 44 6.6 SE 35 50 19 27 1019.4 1019.4 0.0
28/08:35am 20.6 14.6 8.6 46 6.3 SE 30 56 16 30 1019.2 1019.2 0.0
28/08:30am 20.5 14.6 9.1 48 6.0 SSE 30 44 16 24 1019.2 1019.2 0.0
28/08:00am 20.1 14.7 9.4 50 5.7 SE 28 50 15 27 1019.0 1019.0 0.0
28/07:55am 19.9 14.6 9.8 52 5.4 SSE 28 50 15 27 1018.9 1018.9 0.0
28/07:30am 19.5 14.5 9.7 53 5.2 SSE 26 39 14 21 1018.7 1018.7 0.0
28/07:00am 19.5 14.8 9.4 52 5.3 SSE 24 43 13 23 1018.7 1018.7 0.0
28/06:30am 19.5 14.8 9.1 51 5.5 SSE 24 41 13 22 1018.5 1018.5 0.0
28/06:00am 19.6 14.3 8.6 49 5.7 SSE 26 44 14 24 1018.2 1018.1 0.0
28/05:30am 19.5 15.1 8.8 50 5.6 SSE 22 39 12 21 1018.1 1018.0 0.0
28/05:00am 19.9 15.2 9.2 50 5.6 SSE 24 33 13 18 1018.3 1018.3 0.0
28/04:30am 20.1 15.8 9.4 50 5.7 SSE 22 35 12 19 1018.2 1018.1 0.0
28/04:00am 20.3 15.0 8.3 46 6.2 SSE 26 43 14 23 1018.0 1017.9 0.0
28/03:30am 20.4 15.6 9.0 48 6.0 SSE 24 43 13 23 1017.9 1017.8 0.0
28/03:09am 20.6 15.0 8.6 46 6.3 SSE 28 46 15 25 1017.8 1017.7 0.0
28/03:00am 20.6 15.0 8.6 46 6.3 SSE 28 44 15 24 1017.7 1017.6 0.0
28/02:30am 20.9 15.3 8.9 46 6.3 SSE 28 48 15 26 1017.7 1017.6 0.0
28/02:20am 21.0 15.4 8.6 45 6.5 SSE 28 50 15 27 1017.7 1017.6 0.0
28/02:00am 21.0 16.3 9.3 47 6.2 SSE 24 39 13 21 1017.7 1017.6 0.0
28/01:35am 21.3 15.7 8.9 45 6.6 SSE 28 48 15 26 1018.0 1017.9 0.0
28/01:30am 21.3 16.2 9.2 46 6.4 SSE 26 44 14 24 1018.1 1018.0 0.0
28/01:00am 21.4 17.1 9.3 46 6.4 SSE 22 37 12 20 1018.0 1017.9 0.0
28/12:30am 21.9 17.4 10.1 47 6.4 SSE 24 39 13 21 1018.0 1017.9 0.0
28/12:00am 22.2 17.2 9.7 45 6.7 SSE 26 44 14 24 1018.0 1017.9 0.0
 
Date/Time
EST
Temp
°C
App
Temp
°C
Dew
Point
°C
Rel
Hum
%
Delta-T
°C
Wind Press
QNH
hPa
Press
MSL
hPa
Rain since
9am
mm
Dir  Spd
km/h
Gust
km/h
Spd
kts
Gust
kts
27/11:30pm 21.9 18.4 11.0 50 6.0 SSE 20 32 11 17 1018.3 1018.3 0.0
27/11:00pm 22.2 18.9 11.6 51 5.9 SSE 20 35 11 19 1018.3 1018.3 0.0
27/10:30pm 22.6 18.7 10.7 47 6.6 SSE 22 35 12 19 1018.3 1018.3 0.0
27/10:00pm 22.8 18.8 10.3 45 6.8 SSE 22 33 12 18 1018.1 1018.0 0.0
27/09:30pm 22.9 19.2 10.0 44 7.0 SSE 20 35 11 19 1018.0 1017.9 0.0
27/09:00pm 23.1 19.6 10.2 44 7.1 SSE 19 32 10 17 1017.9 1017.8 0.0
27/08:30pm 21.3 20.9 15.2 68 3.6 SSE 11 17 6 9 1017.6 1017.5 0.0
27/08:00pm 21.2 20.9 15.5 70 3.4 SSE 11 15 6 8 1017.4 1017.3 0.0
27/07:30pm 21.3 21.4 15.4 69 3.5 SSE 9 11 5 6 1017.2 1017.1 0.0
27/07:00pm 21.9 21.6 14.3 62 4.4 SSE 9 13 5 7 1016.7 1016.6 0.0
27/06:30pm 22.6 21.6 13.4 56 5.3 SSE 11 15 6 8 1016.4 1016.3 0.0
27/06:00pm 23.6 22.2 12.3 49 6.4 SE 11 20 6 11 1016.3 1016.2 0.0
27/05:30pm 24.5 21.4 10.4 41 7.8 SSE 17 24 9 13 1016.1 1016.0 0.0

Other Formats:

Comma delimited format used in spreadsheet applications
http://www.bom.gov.au/fwo/IDQ60801/IDQ60801.94254.axf

JavaScript Object Notation format (JSON) in row-major order
http://www.bom.gov.au/fwo/IDQ60801/IDQ60801.94254.json